sensor_id;sensor_type;location;lat;lon;timestamp;P1;durP1;ratioP1;P2;durP2;ratioP2
52318;SDS011;38258;51.148;14.068;2023-10-13T00:02:01;9.52;;;5.68;;
52318;SDS011;38258;51.148;14.068;2023-10-13T00:04:30;10.20;;;5.80;;
52318;SDS011;38258;51.148;14.068;2023-10-13T00:07:01;9.25;;;6.30;;
52318;SDS011;38258;51.148;14.068;2023-10-13T00:09:29;11.40;;;6.63;;
52318;SDS011;38258;51.148;14.068;2023-10-13T00:11:58;11.85;;;6.28;;
52318;SDS011;38258;51.148;14.068;2023-10-13T00:14:25;11.02;;;6.85;;
52318;SDS011;38258;51.148;14.068;2023-10-13T00:17:00;13.00;;;6.82;;
52318;SDS011;38258;51.148;14.068;2023-10-13T00:19:29;14.73;;;7.03;;
52318;SDS011;38258;51.148;14.068;2023-10-13T00:22:07;13.77;;;6.93;;
52318;SDS011;38258;51.148;14.068;2023-10-13T00:24:35;11.88;;;6.78;;
52318;SDS011;38258;51.148;14.068;2023-10-13T00:27:08;11.73;;;6.68;;
52318;SDS011;38258;51.148;14.068;2023-10-13T00:29:49;12.88;;;6.72;;
52318;SDS011;38258;51.148;14.068;2023-10-13T00:32:30;11.02;;;6.53;;
52318;SDS011;38258;51.148;14.068;2023-10-13T00:35:00;12.20;;;6.22;;
52318;SDS011;38258;51.148;14.068;2023-10-13T00:37:30;10.82;;;6.20;;
52318;SDS011;38258;51.148;14.068;2023-10-13T00:40:07;12.32;;;6.30;;
52318;SDS011;38258;51.148;14.068;2023-10-13T00:42:51;10.18;;;5.80;;
52318;SDS011;38258;51.148;14.068;2023-10-13T00:45:19;11.52;;;5.95;;
52318;SDS011;38258;51.148;14.068;2023-10-13T00:47:46;11.35;;;6.25;;
52318;SDS011;38258;51.148;14.068;2023-10-13T00:50:15;13.20;;;7.22;;
52318;SDS011;38258;51.148;14.068;2023-10-13T00:52:43;12.43;;;6.22;;
52318;SDS011;38258;51.148;14.068;2023-10-13T00:55:16;9.57;;;6.35;;
52318;SDS011;38258;51.148;14.068;2023-10-13T00:57:45;12.18;;;6.40;;
52318;SDS011;38258;51.148;14.068;2023-10-13T01:00:12;10.13;;;6.40;;
52318;SDS011;38258;51.148;14.068;2023-10-13T01:02:44;11.60;;;7.03;;
52318;SDS011;38258;51.148;14.068;2023-10-13T01:05:21;13.60;;;6.75;;
52318;SDS011;38258;51.148;14.068;2023-10-13T01:07:48;13.75;;;6.38;;
52318;SDS011;38258;51.148;14.068;2023-10-13T01:10:18;11.23;;;6.05;;
52318;SDS011;38258;51.148;14.068;2023-10-13T01:12:45;9.07;;;5.95;;
52318;SDS011;38258;51.148;14.068;2023-10-13T01:15:12;11.63;;;6.32;;
52318;SDS011;38258;51.148;14.068;2023-10-13T01:17:42;9.63;;;6.18;;
52318;SDS011;38258;51.148;14.068;2023-10-13T01:20:11;13.57;;;7.05;;
52318;SDS011;38258;51.148;14.068;2023-10-13T01:22:45;11.03;;;6.13;;
52318;SDS011;38258;51.148;14.068;2023-10-13T01:25:23;9.65;;;6.18;;
52318;SDS011;38258;51.148;14.068;2023-10-13T01:27:53;11.27;;;6.20;;
52318;SDS011;38258;51.148;14.068;2023-10-13T01:30:20;8.45;;;5.43;;
52318;SDS011;38258;51.148;14.068;2023-10-13T01:32:48;10.60;;;6.03;;
52318;SDS011;38258;51.148;14.068;2023-10-13T01:35:17;10.30;;;6.30;;
52318;SDS011;38258;51.148;14.068;2023-10-13T01:37:44;10.23;;;6.07;;
52318;SDS011;38258;51.148;14.068;2023-10-13T01:40:11;12.48;;;7.03;;
52318;SDS011;38258;51.148;14.068;2023-10-13T01:42:39;11.25;;;6.47;;
52318;SDS011;38258;51.148;14.068;2023-10-13T01:45:06;9.55;;;6.72;;
52318;SDS011;38258;51.148;14.068;2023-10-13T01:47:32;10.55;;;6.30;;
52318;SDS011;38258;51.148;14.068;2023-10-13T01:49:59;10.40;;;6.55;;
52318;SDS011;38258;51.148;14.068;2023-10-13T01:52:36;14.32;;;6.78;;
52318;SDS011;38258;51.148;14.068;2023-10-13T01:55:02;11.57;;;6.85;;
52318;SDS011;38258;51.148;14.068;2023-10-13T01:57:31;11.05;;;6.82;;
52318;SDS011;38258;51.148;14.068;2023-10-13T01:59:59;12.48;;;6.43;;
52318;SDS011;38258;51.148;14.068;2023-10-13T02:02:37;12.82;;;6.47;;
52318;SDS011;38258;51.148;14.068;2023-10-13T02:05:10;12.23;;;6.30;;
52318;SDS011;38258;51.148;14.068;2023-10-13T02:07:37;9.68;;;5.88;;
52318;SDS011;38258;51.148;14.068;2023-10-13T02:10:04;9.82;;;5.95;;
52318;SDS011;38258;51.148;14.068;2023-10-13T02:12:31;10.40;;;6.18;;
52318;SDS011;38258;51.148;14.068;2023-10-13T02:15:09;10.88;;;6.70;;
52318;SDS011;38258;51.148;14.068;2023-10-13T02:17:37;10.25;;;6.20;;
52318;SDS011;38258;51.148;14.068;2023-10-13T02:20:10;9.93;;;6.18;;
52318;SDS011;38258;51.148;14.068;2023-10-13T02:22:39;9.80;;;6.10;;
52318;SDS011;38258;51.148;14.068;2023-10-13T02:25:14;10.70;;;6.25;;
52318;SDS011;38258;51.148;14.068;2023-10-13T02:27:44;11.02;;;6.15;;
52318;SDS011;38258;51.148;14.068;2023-10-13T02:30:25;10.00;;;5.70;;
52318;SDS011;38258;51.148;14.068;2023-10-13T02:32:54;12.18;;;5.80;;
52318;SDS011;38258;51.148;14.068;2023-10-13T02:35:21;12.43;;;6.20;;
52318;SDS011;38258;51.148;14.068;2023-10-13T02:37:56;10.55;;;5.88;;
52318;SDS011;38258;51.148;14.068;2023-10-13T02:40:35;13.25;;;5.88;;
52318;SDS011;38258;51.148;14.068;2023-10-13T02:43:00;11.90;;;6.00;;
52318;SDS011;38258;51.148;14.068;2023-10-13T02:45:33;9.73;;;6.00;;
52318;SDS011;38258;51.148;14.068;2023-10-13T02:48:02;12.02;;;6.13;;
52318;SDS011;38258;51.148;14.068;2023-10-13T02:50:42;8.60;;;5.47;;
52318;SDS011;38258;51.148;14.068;2023-10-13T02:53:08;9.80;;;6.28;;
52318;SDS011;38258;51.148;14.068;2023-10-13T02:55:38;9.02;;;5.28;;
52318;SDS011;38258;51.148;14.068;2023-10-13T02:58:14;8.45;;;5.38;;
52318;SDS011;38258;51.148;14.068;2023-10-13T03:00:42;9.07;;;5.30;;
52318;SDS011;38258;51.148;14.068;2023-10-13T03:03:09;10.05;;;5.78;;
52318;SDS011;38258;51.148;14.068;2023-10-13T03:05:36;9.07;;;5.00;;
52318;SDS011;38258;51.148;14.068;2023-10-13T03:08:04;8.52;;;5.22;;
52318;SDS011;38258;51.148;14.068;2023-10-13T03:10:32;8.00;;;5.20;;
52318;SDS011;38258;51.148;14.068;2023-10-13T03:12:58;9.27;;;5.45;;
52318;SDS011;38258;51.148;14.068;2023-10-13T03:15:27;8.88;;;5.30;;
52318;SDS011;38258;51.148;14.068;2023-10-13T03:17:57;8.10;;;5.15;;
52318;SDS011;38258;51.148;14.068;2023-10-13T03:20:24;10.75;;;5.30;;
52318;SDS011;38258;51.148;14.068;2023-10-13T03:22:56;8.52;;;5.07;;
52318;SDS011;38258;51.148;14.068;2023-10-13T03:25:24;10.45;;;5.20;;
52318;SDS011;38258;51.148;14.068;2023-10-13T03:27:55;9.57;;;5.20;;
52318;SDS011;38258;51.148;14.068;2023-10-13T03:30:30;7.68;;;4.72;;
52318;SDS011;38258;51.148;14.068;2023-10-13T03:33:03;9.15;;;4.82;;
52318;SDS011;38258;51.148;14.068;2023-10-13T03:35:33;10.18;;;5.13;;
52318;SDS011;38258;51.148;14.068;2023-10-13T03:38:05;7.40;;;4.53;;
52318;SDS011;38258;51.148;14.068;2023-10-13T03:40:42;9.65;;;5.22;;
52318;SDS011;38258;51.148;14.068;2023-10-13T03:43:13;8.25;;;5.07;;
52318;SDS011;38258;51.148;14.068;2023-10-13T03:45:48;10.02;;;5.03;;
52318;SDS011;38258;51.148;14.068;2023-10-13T03:48:19;9.32;;;4.90;;
52318;SDS011;38258;51.148;14.068;2023-10-13T03:50:55;9.68;;;5.57;;
52318;SDS011;38258;51.148;14.068;2023-10-13T03:53:32;9.57;;;4.97;;
52318;SDS011;38258;51.148;14.068;2023-10-13T03:55:59;9.35;;;4.95;;
52318;SDS011;38258;51.148;14.068;2023-10-13T03:58:37;6.95;;;4.90;;
52318;SDS011;38258;51.148;14.068;2023-10-13T04:01:08;8.18;;;4.90;;
52318;SDS011;38258;51.148;14.068;2023-10-13T04:03:39;8.63;;;4.90;;
52318;SDS011;38258;51.148;14.068;2023-10-13T04:09:09;9.25;;;4.50;;
52318;SDS011;38258;51.148;14.068;2023-10-13T04:11:52;8.33;;;4.63;;
52318;SDS011;38258;51.148;14.068;2023-10-13T04:14:33;8.27;;;4.63;;
52318;SDS011;38258;51.148;14.068;2023-10-13T04:17:15;9.90;;;4.60;;
52318;SDS011;38258;51.148;14.068;2023-10-13T04:19:49;7.68;;;4.97;;
52318;SDS011;38258;51.148;14.068;2023-10-13T04:22:32;6.70;;;4.93;;
52318;SDS011;38258;51.148;14.068;2023-10-13T04:25:30;7.47;;;4.10;;
52318;SDS011;38258;51.148;14.068;2023-10-13T04:28:00;10.55;;;5.00;;
52318;SDS011;38258;51.148;14.068;2023-10-13T04:30:59;6.70;;;4.45;;
52318;SDS011;38258;51.148;14.068;2023-10-13T04:33:37;7.70;;;4.70;;
52318;SDS011;38258;51.148;14.068;2023-10-13T04:36:18;7.70;;;4.75;;
52318;SDS011;38258;51.148;14.068;2023-10-13T04:39:02;8.73;;;5.10;;
52318;SDS011;38258;51.148;14.068;2023-10-13T04:41:35;8.38;;;4.88;;
52318;SDS011;38258;51.148;14.068;2023-10-13T04:44:04;8.85;;;4.88;;
52318;SDS011;38258;51.148;14.068;2023-10-13T04:46:51;7.50;;;4.55;;
52318;SDS011;38258;51.148;14.068;2023-10-13T04:49:34;8.73;;;5.03;;
52318;SDS011;38258;51.148;14.068;2023-10-13T04:52:19;8.68;;;5.07;;
52318;SDS011;38258;51.148;14.068;2023-10-13T04:55:17;9.02;;;4.07;;
52318;SDS011;38258;51.148;14.068;2023-10-13T04:58:13;12.35;;;4.68;;
52318;SDS011;38258;51.148;14.068;2023-10-13T05:01:01;8.63;;;4.70;;
52318;SDS011;38258;51.148;14.068;2023-10-13T05:03:46;8.55;;;4.70;;
52318;SDS011;38258;51.148;14.068;2023-10-13T05:06:33;7.32;;;4.70;;
52318;SDS011;38258;51.148;14.068;2023-10-13T05:09:24;9.65;;;4.18;;
52318;SDS011;38258;51.148;14.068;2023-10-13T05:12:08;7.25;;;4.30;;
52318;SDS011;38258;51.148;14.068;2023-10-13T05:14:52;7.90;;;4.22;;
52318;SDS011;38258;51.148;14.068;2023-10-13T05:17:37;7.55;;;4.68;;
52318;SDS011;38258;51.148;14.068;2023-10-13T05:23:05;8.93;;;5.35;;
52318;SDS011;38258;51.148;14.068;2023-10-13T05:25:51;6.57;;;4.13;;
52318;SDS011;38258;51.148;14.068;2023-10-13T05:28:35;7.90;;;4.22;;
52318;SDS011;38258;51.148;14.068;2023-10-13T05:31:19;8.07;;;4.40;;
52318;SDS011;38258;51.148;14.068;2023-10-13T05:34:03;6.30;;;4.38;;
52318;SDS011;38258;51.148;14.068;2023-10-13T05:36:53;6.78;;;4.40;;
52318;SDS011;38258;51.148;14.068;2023-10-13T05:39:37;7.25;;;4.15;;
52318;SDS011;38258;51.148;14.068;2023-10-13T05:42:23;5.32;;;3.92;;
52318;SDS011;38258;51.148;14.068;2023-10-13T05:45:07;8.02;;;4.20;;
52318;SDS011;38258;51.148;14.068;2023-10-13T05:47:48;6.88;;;4.70;;
52318;SDS011;38258;51.148;14.068;2023-10-13T05:50:27;8.05;;;4.63;;
52318;SDS011;38258;51.148;14.068;2023-10-13T05:53:10;6.07;;;3.97;;
52318;SDS011;38258;51.148;14.068;2023-10-13T05:55:59;10.20;;;4.82;;
52318;SDS011;38258;51.148;14.068;2023-10-13T05:58:45;7.00;;;4.13;;
52318;SDS011;38258;51.148;14.068;2023-10-13T06:01:29;6.80;;;4.15;;
52318;SDS011;38258;51.148;14.068;2023-10-13T06:04:14;8.02;;;4.10;;
52318;SDS011;38258;51.148;14.068;2023-10-13T06:06:58;7.57;;;4.25;;
52318;SDS011;38258;51.148;14.068;2023-10-13T06:15:14;9.88;;;5.32;;
52318;SDS011;38258;51.148;14.068;2023-10-13T06:17:59;10.65;;;6.47;;
52318;SDS011;38258;51.148;14.068;2023-10-13T06:23:27;11.82;;;6.68;;
52318;SDS011;38258;51.148;14.068;2023-10-13T06:26:11;12.05;;;6.63;;
52318;SDS011;38258;51.148;14.068;2023-10-13T06:28:55;12.25;;;7.22;;
52318;SDS011;38258;51.148;14.068;2023-10-13T06:31:24;13.07;;;7.38;;
52318;SDS011;38258;51.148;14.068;2023-10-13T06:33:52;11.38;;;7.22;;
52318;SDS011;38258;51.148;14.068;2023-10-13T06:36:20;10.23;;;6.63;;
52318;SDS011;38258;51.148;14.068;2023-10-13T06:38:48;12.00;;;6.97;;
52318;SDS011;38258;51.148;14.068;2023-10-13T06:41:41;12.13;;;7.63;;
52318;SDS011;38258;51.148;14.068;2023-10-13T06:44:09;13.15;;;6.95;;
52318;SDS011;38258;51.148;14.068;2023-10-13T06:46:41;10.65;;;6.75;;
52318;SDS011;38258;51.148;14.068;2023-10-13T06:49:09;10.35;;;6.63;;
52318;SDS011;38258;51.148;14.068;2023-10-13T06:51:38;10.20;;;6.60;;
52318;SDS011;38258;51.148;14.068;2023-10-13T06:54:05;10.88;;;6.38;;
52318;SDS011;38258;51.148;14.068;2023-10-13T06:56:45;13.68;;;7.38;;
52318;SDS011;38258;51.148;14.068;2023-10-13T06:59:11;11.27;;;7.45;;
52318;SDS011;38258;51.148;14.068;2023-10-13T07:01:39;13.48;;;7.35;;
52318;SDS011;38258;51.148;14.068;2023-10-13T07:04:10;11.57;;;7.35;;
52318;SDS011;38258;51.148;14.068;2023-10-13T07:06:40;11.63;;;7.05;;
52318;SDS011;38258;51.148;14.068;2023-10-13T07:09:13;11.68;;;6.93;;
52318;SDS011;38258;51.148;14.068;2023-10-13T07:12:02;10.93;;;6.72;;
52318;SDS011;38258;51.148;14.068;2023-10-13T07:14:31;11.70;;;7.13;;
52318;SDS011;38258;51.148;14.068;2023-10-13T07:17:00;11.75;;;6.90;;
52318;SDS011;38258;51.148;14.068;2023-10-13T07:19:31;10.98;;;7.10;;
52318;SDS011;38258;51.148;14.068;2023-10-13T07:21:59;10.95;;;7.15;;
52318;SDS011;38258;51.148;14.068;2023-10-13T07:24:28;11.15;;;7.32;;
52318;SDS011;38258;51.148;14.068;2023-10-13T07:26:57;10.90;;;7.28;;
52318;SDS011;38258;51.148;14.068;2023-10-13T07:29:28;11.93;;;7.68;;
52318;SDS011;38258;51.148;14.068;2023-10-13T07:31:59;10.30;;;6.57;;
52318;SDS011;38258;51.148;14.068;2023-10-13T07:34:28;11.50;;;7.90;;
52318;SDS011;38258;51.148;14.068;2023-10-13T07:36:58;11.57;;;7.78;;
52318;SDS011;38258;51.148;14.068;2023-10-13T07:39:29;10.45;;;6.93;;
52318;SDS011;38258;51.148;14.068;2023-10-13T07:41:59;11.00;;;6.97;;
52318;SDS011;38258;51.148;14.068;2023-10-13T07:44:29;12.57;;;7.40;;
52318;SDS011;38258;51.148;14.068;2023-10-13T07:46:58;11.38;;;6.88;;
52318;SDS011;38258;51.148;14.068;2023-10-13T07:49:28;11.18;;;6.68;;
52318;SDS011;38258;51.148;14.068;2023-10-13T07:52:03;11.85;;;7.43;;
52318;SDS011;38258;51.148;14.068;2023-10-13T07:54:49;13.10;;;7.43;;
52318;SDS011;38258;51.148;14.068;2023-10-13T07:57:25;10.52;;;6.80;;
52318;SDS011;38258;51.148;14.068;2023-10-13T07:59:54;13.15;;;7.47;;
52318;SDS011;38258;51.148;14.068;2023-10-13T08:02:36;11.02;;;6.85;;
52318;SDS011;38258;51.148;14.068;2023-10-13T08:05:16;11.77;;;7.90;;
52318;SDS011;38258;51.148;14.068;2023-10-13T08:07:53;10.50;;;7.03;;
52318;SDS011;38258;51.148;14.068;2023-10-13T08:10:21;9.98;;;6.55;;
52318;SDS011;38258;51.148;14.068;2023-10-13T08:15:23;8.70;;;6.15;;
52318;SDS011;38258;51.148;14.068;2023-10-13T08:17:58;9.18;;;6.68;;
52318;SDS011;38258;51.148;14.068;2023-10-13T08:20:30;10.85;;;7.00;;
52318;SDS011;38258;51.148;14.068;2023-10-13T08:23:05;10.02;;;6.28;;
52318;SDS011;38258;51.148;14.068;2023-10-13T08:25:45;10.43;;;6.85;;
52318;SDS011;38258;51.148;14.068;2023-10-13T08:28:26;13.27;;;6.90;;
52318;SDS011;38258;51.148;14.068;2023-10-13T08:31:21;11.18;;;7.35;;
52318;SDS011;38258;51.148;14.068;2023-10-13T08:33:50;10.77;;;7.20;;
52318;SDS011;38258;51.148;14.068;2023-10-13T08:36:16;9.63;;;6.03;;
52318;SDS011;38258;51.148;14.068;2023-10-13T08:38:54;11.50;;;7.07;;
52318;SDS011;38258;51.148;14.068;2023-10-13T08:41:22;13.55;;;7.38;;
52318;SDS011;38258;51.148;14.068;2023-10-13T08:43:55;9.60;;;6.97;;
52318;SDS011;38258;51.148;14.068;2023-10-13T08:46:35;12.20;;;7.88;;
52318;SDS011;38258;51.148;14.068;2023-10-13T08:49:29;10.68;;;7.45;;
52318;SDS011;38258;51.148;14.068;2023-10-13T08:52:05;10.20;;;6.90;;
52318;SDS011;38258;51.148;14.068;2023-10-13T08:54:50;11.50;;;7.53;;
52318;SDS011;38258;51.148;14.068;2023-10-13T08:57:38;11.30;;;7.10;;
52318;SDS011;38258;51.148;14.068;2023-10-13T09:00:06;13.07;;;6.93;;
52318;SDS011;38258;51.148;14.068;2023-10-13T09:02:53;10.02;;;6.88;;
52318;SDS011;38258;51.148;14.068;2023-10-13T09:05:45;11.38;;;6.68;;
52318;SDS011;38258;51.148;14.068;2023-10-13T09:08:26;11.35;;;7.15;;
52318;SDS011;38258;51.148;14.068;2023-10-13T09:11:02;9.40;;;6.53;;
52318;SDS011;38258;51.148;14.068;2023-10-13T09:13:37;11.15;;;7.10;;
52318;SDS011;38258;51.148;14.068;2023-10-13T09:16:12;9.80;;;7.03;;
52318;SDS011;38258;51.148;14.068;2023-10-13T09:18:48;11.43;;;6.60;;
52318;SDS011;38258;51.148;14.068;2023-10-13T09:21:18;11.50;;;6.95;;
52318;SDS011;38258;51.148;14.068;2023-10-13T09:24:14;8.45;;;6.60;;
52318;SDS011;38258;51.148;14.068;2023-10-13T09:26:48;10.07;;;6.75;;
52318;SDS011;38258;51.148;14.068;2023-10-13T09:29:18;8.93;;;6.78;;
52318;SDS011;38258;51.148;14.068;2023-10-13T09:31:46;9.20;;;6.70;;
52318;SDS011;38258;51.148;14.068;2023-10-13T09:34:19;9.93;;;6.65;;
52318;SDS011;38258;51.148;14.068;2023-10-13T09:36:47;8.35;;;6.20;;
52318;SDS011;38258;51.148;14.068;2023-10-13T09:39:22;8.60;;;6.25;;
52318;SDS011;38258;51.148;14.068;2023-10-13T09:42:02;9.23;;;5.95;;
52318;SDS011;38258;51.148;14.068;2023-10-13T09:44:35;9.88;;;6.40;;
52318;SDS011;38258;51.148;14.068;2023-10-13T09:47:02;12.85;;;7.22;;
52318;SDS011;38258;51.148;14.068;2023-10-13T09:49:38;9.60;;;6.95;;
52318;SDS011;38258;51.148;14.068;2023-10-13T09:52:15;10.68;;;6.88;;
52318;SDS011;38258;51.148;14.068;2023-10-13T09:54:56;8.75;;;6.35;;
52318;SDS011;38258;51.148;14.068;2023-10-13T09:57:40;8.88;;;6.40;;
52318;SDS011;38258;51.148;14.068;2023-10-13T10:00:15;10.27;;;6.30;;
52318;SDS011;38258;51.148;14.068;2023-10-13T10:03:10;9.50;;;6.28;;
52318;SDS011;38258;51.148;14.068;2023-10-13T10:05:54;9.90;;;6.28;;
52318;SDS011;38258;51.148;14.068;2023-10-13T10:08:28;12.43;;;6.88;;
52318;SDS011;38258;51.148;14.068;2023-10-13T10:11:15;9.90;;;6.30;;
52318;SDS011;38258;51.148;14.068;2023-10-13T10:14:01;11.52;;;7.95;;
52318;SDS011;38258;51.148;14.068;2023-10-13T10:16:37;11.45;;;7.78;;
52318;SDS011;38258;51.148;14.068;2023-10-13T10:19:12;11.32;;;7.28;;
52318;SDS011;38258;51.148;14.068;2023-10-13T10:21:38;12.25;;;7.50;;
52318;SDS011;38258;51.148;14.068;2023-10-13T10:24:15;12.20;;;7.70;;
52318;SDS011;38258;51.148;14.068;2023-10-13T10:26:55;11.38;;;8.05;;
52318;SDS011;38258;51.148;14.068;2023-10-13T10:29:23;12.35;;;7.72;;
52318;SDS011;38258;51.148;14.068;2023-10-13T10:31:50;16.10;;;8.73;;
52318;SDS011;38258;51.148;14.068;2023-10-13T10:34:17;12.50;;;8.65;;
52318;SDS011;38258;51.148;14.068;2023-10-13T10:36:48;13.52;;;8.65;;
52318;SDS011;38258;51.148;14.068;2023-10-13T10:39:20;11.55;;;8.05;;
52318;SDS011;38258;51.148;14.068;2023-10-13T10:42:10;12.40;;;8.30;;
52318;SDS011;38258;51.148;14.068;2023-10-13T10:44:50;13.38;;;8.35;;
52318;SDS011;38258;51.148;14.068;2023-10-13T10:47:23;12.95;;;8.57;;
52318;SDS011;38258;51.148;14.068;2023-10-13T10:49:58;14.32;;;8.75;;
52318;SDS011;38258;51.148;14.068;2023-10-13T10:52:26;11.07;;;7.85;;
52318;SDS011;38258;51.148;14.068;2023-10-13T10:55:02;12.63;;;7.88;;
52318;SDS011;38258;51.148;14.068;2023-10-13T10:57:32;11.65;;;7.85;;
52318;SDS011;38258;51.148;14.068;2023-10-13T11:00:04;11.43;;;8.23;;
52318;SDS011;38258;51.148;14.068;2023-10-13T11:02:39;13.73;;;8.55;;
52318;SDS011;38258;51.148;14.068;2023-10-13T11:05:07;12.30;;;7.93;;
52318;SDS011;38258;51.148;14.068;2023-10-13T11:07:35;12.00;;;7.43;;
52318;SDS011;38258;51.148;14.068;2023-10-13T11:10:08;13.10;;;8.10;;
52318;SDS011;38258;51.148;14.068;2023-10-13T11:12:53;10.20;;;7.50;;
52318;SDS011;38258;51.148;14.068;2023-10-13T11:15:22;13.52;;;7.82;;
52318;SDS011;38258;51.148;14.068;2023-10-13T11:17:58;12.25;;;8.15;;
52318;SDS011;38258;51.148;14.068;2023-10-13T11:20:25;12.63;;;8.00;;
52318;SDS011;38258;51.148;14.068;2023-10-13T11:22:58;12.00;;;8.17;;
52318;SDS011;38258;51.148;14.068;2023-10-13T11:25:25;13.63;;;8.65;;
52318;SDS011;38258;51.148;14.068;2023-10-13T11:28:09;11.27;;;8.38;;
52318;SDS011;38258;51.148;14.068;2023-10-13T11:30:44;17.30;;;9.10;;
52318;SDS011;38258;51.148;14.068;2023-10-13T11:33:14;14.00;;;8.70;;
52318;SDS011;38258;51.148;14.068;2023-10-13T11:35:46;12.63;;;9.15;;
52318;SDS011;38258;51.148;14.068;2023-10-13T11:38:21;15.18;;;9.43;;
52318;SDS011;38258;51.148;14.068;2023-10-13T11:40:52;14.65;;;9.25;;
52318;SDS011;38258;51.148;14.068;2023-10-13T11:43:37;13.48;;;9.10;;
52318;SDS011;38258;51.148;14.068;2023-10-13T11:46:19;14.48;;;8.73;;
52318;SDS011;38258;51.148;14.068;2023-10-13T11:49:01;16.17;;;9.38;;
52318;SDS011;38258;51.148;14.068;2023-10-13T11:51:42;13.68;;;9.80;;
52318;SDS011;38258;51.148;14.068;2023-10-13T11:54:11;14.00;;;10.35;;
52318;SDS011;38258;51.148;14.068;2023-10-13T11:56:38;16.67;;;10.23;;
52318;SDS011;38258;51.148;14.068;2023-10-13T11:59:05;15.85;;;9.88;;
52318;SDS011;38258;51.148;14.068;2023-10-13T12:01:42;16.45;;;10.82;;
52318;SDS011;38258;51.148;14.068;2023-10-13T12:04:24;17.17;;;10.63;;
52318;SDS011;38258;51.148;14.068;2023-10-13T12:07:05;15.30;;;9.38;;
52318;SDS011;38258;51.148;14.068;2023-10-13T12:09:42;16.38;;;10.55;;
52318;SDS011;38258;51.148;14.068;2023-10-13T12:12:28;14.15;;;9.65;;
52318;SDS011;38258;51.148;14.068;2023-10-13T12:15:35;11.82;;;8.60;;
52318;SDS011;38258;51.148;14.068;2023-10-13T12:18:18;11.30;;;8.73;;
52318;SDS011;38258;51.148;14.068;2023-10-13T12:20:48;18.67;;;9.05;;
52318;SDS011;38258;51.148;14.068;2023-10-13T12:23:15;13.88;;;8.52;;
52318;SDS011;38258;51.148;14.068;2023-10-13T12:25:42;13.73;;;7.80;;
52318;SDS011;38258;51.148;14.068;2023-10-13T12:28:26;13.23;;;7.35;;
52318;SDS011;38258;51.148;14.068;2023-10-13T12:30:54;15.60;;;8.45;;
52318;SDS011;38258;51.148;14.068;2023-10-13T12:33:24;11.95;;;7.20;;
52318;SDS011;38258;51.148;14.068;2023-10-13T12:35:55;13.50;;;7.38;;
52318;SDS011;38258;51.148;14.068;2023-10-13T12:38:29;14.10;;;7.45;;
52318;SDS011;38258;51.148;14.068;2023-10-13T12:41:16;13.77;;;6.25;;
52318;SDS011;38258;51.148;14.068;2023-10-13T12:44:01;11.80;;;7.13;;
52318;SDS011;38258;51.148;14.068;2023-10-13T12:46:45;14.23;;;7.07;;
52318;SDS011;38258;51.148;14.068;2023-10-13T12:49:33;10.50;;;5.90;;
52318;SDS011;38258;51.148;14.068;2023-10-13T12:52:23;11.95;;;6.65;;
52318;SDS011;38258;51.148;14.068;2023-10-13T12:54:51;12.13;;;6.72;;
52318;SDS011;38258;51.148;14.068;2023-10-13T12:57:24;11.38;;;7.43;;
52318;SDS011;38258;51.148;14.068;2023-10-13T12:59:51;9.48;;;6.25;;
52318;SDS011;38258;51.148;14.068;2023-10-13T13:02:19;14.60;;;7.22;;
52318;SDS011;38258;51.148;14.068;2023-10-13T13:04:47;15.18;;;5.47;;
52318;SDS011;38258;51.148;14.068;2023-10-13T13:09:46;11.80;;;5.72;;
52318;SDS011;38258;51.148;14.068;2023-10-13T13:12:13;12.48;;;5.63;;
52318;SDS011;38258;51.148;14.068;2023-10-13T13:14:40;12.20;;;5.78;;
52318;SDS011;38258;51.148;14.068;2023-10-13T13:17:11;9.70;;;5.60;;
52318;SDS011;38258;51.148;14.068;2023-10-13T13:19:38;8.52;;;5.18;;
52318;SDS011;38258;51.148;14.068;2023-10-13T13:22:07;11.05;;;5.25;;
52318;SDS011;38258;51.148;14.068;2023-10-13T13:24:37;12.00;;;5.32;;
52318;SDS011;38258;51.148;14.068;2023-10-13T13:27:08;12.65;;;5.50;;
52318;SDS011;38258;51.148;14.068;2023-10-13T13:29:39;10.85;;;5.03;;
52318;SDS011;38258;51.148;14.068;2023-10-13T13:32:06;8.10;;;4.65;;
52318;SDS011;38258;51.148;14.068;2023-10-13T13:34:44;10.35;;;4.90;;
52318;SDS011;38258;51.148;14.068;2023-10-13T13:37:21;9.73;;;4.93;;
52318;SDS011;38258;51.148;14.068;2023-10-13T13:39:47;10.80;;;5.40;;
52318;SDS011;38258;51.148;14.068;2023-10-13T13:42:17;10.40;;;5.35;;
52318;SDS011;38258;51.148;14.068;2023-10-13T13:44:45;11.68;;;5.07;;
52318;SDS011;38258;51.148;14.068;2023-10-13T13:47:12;12.10;;;5.28;;
52318;SDS011;38258;51.148;14.068;2023-10-13T13:49:39;10.40;;;5.10;;
52318;SDS011;38258;51.148;14.068;2023-10-13T13:52:11;8.85;;;5.00;;
52318;SDS011;38258;51.148;14.068;2023-10-13T13:54:44;8.45;;;5.15;;
52318;SDS011;38258;51.148;14.068;2023-10-13T13:57:11;11.40;;;4.97;;
52318;SDS011;38258;51.148;14.068;2023-10-13T13:59:38;8.77;;;4.90;;
52318;SDS011;38258;51.148;14.068;2023-10-13T14:02:09;15.65;;;4.75;;
52318;SDS011;38258;51.148;14.068;2023-10-13T14:04:44;10.82;;;4.95;;
52318;SDS011;38258;51.148;14.068;2023-10-13T14:07:12;8.75;;;4.88;;
52318;SDS011;38258;51.148;14.068;2023-10-13T14:09:41;8.07;;;4.88;;
52318;SDS011;38258;51.148;14.068;2023-10-13T14:12:10;11.48;;;4.97;;
52318;SDS011;38258;51.148;14.068;2023-10-13T14:14:55;10.93;;;4.80;;
52318;SDS011;38258;51.148;14.068;2023-10-13T14:17:22;11.55;;;5.68;;
52318;SDS011;38258;51.148;14.068;2023-10-13T14:19:54;8.40;;;5.03;;
52318;SDS011;38258;51.148;14.068;2023-10-13T14:22:22;7.68;;;5.15;;
52318;SDS011;38258;51.148;14.068;2023-10-13T14:24:50;13.15;;;5.20;;
52318;SDS011;38258;51.148;14.068;2023-10-13T14:27:21;11.30;;;5.18;;
52318;SDS011;38258;51.148;14.068;2023-10-13T14:29:51;10.57;;;4.85;;
52318;SDS011;38258;51.148;14.068;2023-10-13T14:32:19;11.18;;;4.97;;
52318;SDS011;38258;51.148;14.068;2023-10-13T14:34:49;11.63;;;4.93;;
52318;SDS011;38258;51.148;14.068;2023-10-13T14:37:21;12.73;;;5.32;;
52318;SDS011;38258;51.148;14.068;2023-10-13T14:39:53;9.88;;;5.35;;
52318;SDS011;38258;51.148;14.068;2023-10-13T14:42:24;10.35;;;4.88;;
52318;SDS011;38258;51.148;14.068;2023-10-13T14:44:51;8.23;;;4.85;;
52318;SDS011;38258;51.148;14.068;2023-10-13T14:47:22;10.20;;;4.55;;
52318;SDS011;38258;51.148;14.068;2023-10-13T14:49:51;11.70;;;5.15;;
52318;SDS011;38258;51.148;14.068;2023-10-13T14:52:21;8.95;;;4.95;;
52318;SDS011;38258;51.148;14.068;2023-10-13T14:54:48;11.15;;;5.28;;
52318;SDS011;38258;51.148;14.068;2023-10-13T14:57:20;9.23;;;5.22;;
52318;SDS011;38258;51.148;14.068;2023-10-13T14:59:51;11.82;;;4.93;;
52318;SDS011;38258;51.148;14.068;2023-10-13T15:02:18;10.80;;;5.10;;
52318;SDS011;38258;51.148;14.068;2023-10-13T15:04:47;11.43;;;5.47;;
52318;SDS011;38258;51.148;14.068;2023-10-13T15:07:14;11.93;;;4.75;;
52318;SDS011;38258;51.148;14.068;2023-10-13T15:09:41;9.77;;;5.15;;
52318;SDS011;38258;51.148;14.068;2023-10-13T15:12:09;8.05;;;4.72;;
52318;SDS011;38258;51.148;14.068;2023-10-13T15:14:36;9.55;;;4.88;;
52318;SDS011;38258;51.148;14.068;2023-10-13T15:17:04;10.13;;;4.90;;
52318;SDS011;38258;51.148;14.068;2023-10-13T15:19:32;11.05;;;5.10;;
52318;SDS011;38258;51.148;14.068;2023-10-13T15:22:01;9.65;;;5.18;;
52318;SDS011;38258;51.148;14.068;2023-10-13T15:24:31;10.80;;;4.85;;
52318;SDS011;38258;51.148;14.068;2023-10-13T15:27:01;11.52;;;4.80;;